Terminal Aerodrome Forecast
Issued by NWS

Home | Current Version | Previous Version | Text Only | Print | Product List | Glossary On
Versions: 1 2 3 4 5 6 7 8 9 10 11 12 13 14 15 16 17
000
FTUS43 KDMX 242340
TAFMCW
TAF
KMCW 242340Z 2500/2524 20005KT P6SM SCT050
     FM250700 14005KT P6SM VCTS BKN040CB
     FM251000 15008KT 5SM -TSRA SCT030CB OVC070
     FM251500 15011KT P6SM VCTS OVC040CB
     FM252000 16015KT P6SM SCT040 BKN070=

USA.gov is the U.S. government's official web portal to all federal, state and local government web resources and services.